Station: NARACOORTE AP

  Atmospheric Gas Attenuation - ITU Rec 676-11   --------------- db/100km ---------------
Date Time Temp RH % AH g/m3 Dew Point Wind Direction Speed kph Gust kph Barometer mB Rainfall Since 9am 24GHz 47GHz 76GHz 122GHz 134GHz 241GHz
25 01:30 10.5 86 8.34 8.3 0 0 1012.9 0 19.2 26.4 40.4 106.0 99.1 340.5
25 01:20 11 86 8.61 8.8 0 0 1012.8 0 19.7 26.7 41.3 108.3 102.1 351.2
25 01:10 11.5 86 8.88 9.2 6 6 1013 0 20.3 27.0 42.1 110.6 105.2 361.9
25 01:00 11.1 85 8.56 8.7 0 0 1013.2 0 19.6 26.6 41.0 107.7 101.3 348.5
25 00:50 11.6 85 8.84 9.2 0 0 1013.3 0 20.2 26.9 41.9 110.1 104.5 359.6
25 00:40 11.4 84 8.62 8.8 0 0 1013.3 0 19.7 26.6 41.1 107.9 101.8 350.0
25 00:30 11.6 84 8.73 9 4 9 1013.6 0 20.0 26.8 41.5 108.9 103.0 354.5
25 00:20 11.9 83 8.79 9.1 0 0 1013.5 0 20.1 26.8 41.6 109.1 103.5 355.9
25 00:10 12.4 83 9.07 9.6 0 0 1013.8 0 20.7 27.1 42.5 111.6 106.6 367.1
25 00:00 12.1 82 8.79 9.1 0 0 1014 0 20.1 26.7 41.5 108.9 103.2 355.2
24 23:50 12.5 82 9.02 9.5 0 0 1014 0 20.6 27.0 42.2 110.9 105.8 364.3
24 23:40 12.5 81 8.91 9.3 0 0 1014 0 20.3 26.8 41.8 109.7 104.3 359.0
24 23:30 12.5 81 8.91 9.3 0 0 1014.2 0 20.3 26.8 41.8 109.7 104.3 359.1
24 23:20 12.5 80 8.8 9.1 0 0 1014.2 0 20.1 26.6 41.3 108.5 102.8 353.9
24 23:10 12.2 79 8.53 8.7 0 0 1014.3 0 19.5 26.3 40.4 105.9 99.6 342.5
24 23:00 12.6 80 8.85 9.2 0 2 1014.5 0 20.2 26.7 41.5 108.9 103.4 355.9
24 22:50 12.4 80 8.74 9.1 2 6 1014.6 0 20.0 26.6 41.1 108.0 102.2 351.6
24 22:40 12.3 78 8.47 8.6 7 7 1014.7 0 19.4 26.2 40.1 105.2 98.7 339.3
24 22:30 12.6 76 8.41 8.5 4 7 1014.8 0 19.2 26.0 39.7 104.2 97.5 335.2
24 22:20 13 75 8.51 8.7 0 0 1014.8 0 19.4 26.0 39.9 104.7 98.3 338.2
24 22:10 13.1 74 8.44 8.6 0 2 1014.9 0 19.3 25.9 39.6 103.8 97.3 334.5
24 22:00 13 73 8.28 8.3 7 9 1014.9 0 18.9 25.7 39.0 102.2 95.3 327.5
24 21:50 13.5 73 8.54 8.8 7 7 1014.9 0 19.5 25.9 39.8 104.4 98.1 337.5
24 21:40 13.4 72 8.37 8.5 6 6 1014.8 0 19.1 25.7 39.1 102.7 96.0 330.0
24 21:30 13.7 72 8.53 8.7 9 11 1014.8 0 19.4 25.9 39.6 104.0 97.7 336.1
24 21:20 13.8 71 8.46 8.6 9 11 1014.8 0 19.3 25.7 39.3 103.1 96.7 332.5
24 21:10 14.1 69 8.37 8.5 11 11 1014.8 0 19.1 25.5 38.8 101.8 95.1 327.1
24 21:00 14.6 67 8.38 8.5 7 9 1014.8 0 19.1 25.4 38.6 101.2 94.7 325.5
24 20:50 14.9 65 8.28 8.4 7 7 1014.7 0 18.9 25.1 38.1 99.8 93.0 319.7
24 20:40 15.2 64 8.31 8.4 11 11 1014.6 0 18.9 25.1 38.0 99.7 93.0 319.8
24 20:30 15.7 62 8.3 8.4 11 13 1014.6 0 18.9 24.9 37.8 99.0 92.3 317.3
24 20:20 16.3 59 8.19 8.3 13 13 1014.6 0 18.6 24.6 37.0 97.1 90.2 310.1
24 20:10 16.9 57 8.2 8.3 13 15 1014.3 0 18.6 24.4 36.8 96.5 89.6 308.1
24 20:00 17.6 54 8.1 8.2 15 19 1014.4 0 18.3 24.1 36.1 94.6 87.6 301.1
24 19:50 18.4 51 8.02 8.1 17 20 1014.3 0 18.1 23.8 35.5 92.9 85.7 294.7
24 19:40 18.9 51 8.26 8.6 17 19 1014.3 0 18.6 24.0 36.1 94.7 88.1 303.1
24 19:30 19.2 50 8.24 8.5 20 26 1014.3 0 18.6 23.9 35.9 94.1 87.5 301.1
24 19:20 19.6 49 8.27 8.6 26 28 1014.1 0 18.6 23.8 35.8 93.9 87.4 300.8
24 19:10 19.5 49 8.22 8.5 22 26 1014 0 18.5 23.8 35.7 93.6 86.9 299.1
24 19:00 19.9 50 8.59 9.2 22 28 1014 0 19.3 24.2 36.9 96.7 91.0 313.2
24 18:50 19.9 50 8.59 9.2 20 24 1013.8 0 19.3 24.2 36.9 96.7 91.0 313.2
24 18:40 20.1 48 8.34 8.8 22 28 1013.8 0 18.7 23.8 35.9 94.0 87.7 301.8
24 18:30 20.5 47 8.36 8.8 22 30 1013.8 0 18.8 23.7 35.8 93.7 87.5 301.2
24 18:20 20.9 46 8.38 8.9 20 22 1013.6 0 18.8 23.6 35.6 93.5 87.3 300.5
24 18:10 21 43 7.88 8 20 22 1013.6 0 17.7 22.9 33.8 88.6 81.3 279.5
24 18:00 21.6 41 7.78 7.8 22 32 1013.6 0 17.5 22.6 33.2 87.0 79.5 273.4
24 17:50 22.4 38 7.55 7.4 22 26 1013.5 0 17.0 22.1 32.1 84.0 76.1 261.5
24 17:40 22.4 37 7.35 7 19 24 1013.6 0 16.6 21.8 31.4 82.2 73.9 253.6
24 17:30 22.6 33 6.63 5.5 22 30 1013.6 0 15.1 20.8 28.9 75.5 65.7 225.0
24 17:20 22.5 35 6.99 6.3 24 28 1013.5 0 15.8 21.3 30.2 78.8 69.8 239.2
24 17:10 22.7 34 6.87 6 19 22 1013.5 0 15.6 21.1 29.7 77.6 68.3 233.9
24 17:00 23.1 34 7.03 6.4 20 30 1013.6 0 15.9 21.2 30.1 78.6 69.7 239.0
24 16:50 22.9 34 6.95 6.2 15 22 1013.5 0 15.7 21.1 29.9 78.1 69.0 236.5
24 16:40 23.4 32 6.73 5.8 20 22 1013.5 0 15.2 20.7 29.0 75.7 66.2 226.6
24 16:30 23.5 31 6.56 5.4 22 33 1013.7 0 14.9 20.5 28.4 74.1 64.3 219.9
24 16:20 23.1 33 6.82 6 22 30 1013.6 0 15.4 20.9 29.4 76.7 67.4 230.9
24 16:10 24.3 32 7.08 6.6 26 30 1013.5 0 15.9 21.0 29.8 77.9 69.2 237.4
24 16:00 24.2 31 6.82 6 22 32 1013.7 0 15.4 20.7 29.0 75.7 66.5 227.9
24 15:50 23.6 33 7.02 6.4 24 26 1013.7 0 15.8 21.1 29.9 78.1 69.2 237.2
24 15:40 24.2 33 7.26 6.9 20 28 1013.7 0 16.3 21.3 30.4 79.6 71.3 244.7
24 15:30 24.4 34 7.57 7.5 26 39 1013.8 0 16.9 21.6 31.4 82.2 74.5 256.0
24 15:20 24.8 34 7.74 7.9 24 32 1013.7 0 17.3 21.8 31.8 83.3 76.0 261.3
24 15:10 24.4 36 8.01 8.4 19 28 1013.8 0 17.9 22.2 32.9 86.2 79.4 273.2
24 15:00 24 37 8.05 8.4 24 35 1013.9 0 18.0 22.4 33.2 86.9 80.3 276.2
24 14:50 24.3 35 7.74 7.9 19 20 1014 0 17.3 21.9 32.0 83.8 76.5 263.0
24 14:40 24.7 36 8.15 8.6 19 22 1014.1 0 18.1 22.4 33.3 87.1 80.7 277.8
24 14:30 24.2 35 7.7 7.8 22 32 1014.2 0 17.2 21.9 31.9 83.6 76.2 261.8
24 14:20 24.7 35 7.92 8.2 28 32 1014.2 0 17.7 22.1 32.5 85.1 78.1 268.8
24 14:10 24.7 35 7.92 8.2 24 33 1014.2 0 17.7 22.1 32.5 85.1 78.1 268.8
24 14:00 24.2 37 8.14 8.6 24 35 1014.4 0 18.1 22.5 33.4 87.6 81.1 279.2
24 13:50 24.4 37 8.23 8.8 28 32 1014.3 0 18.3 22.6 33.7 88.2 81.9 282.0
24 13:40 24 38 8.27 8.8 24 32 1014.5 0 18.4 22.7 34.0 89.0 82.8 285.0
24 13:30 23.5 38 8.04 8.4 22 32 1014.5 0 18.0 22.5 33.4 87.4 80.7 277.6
24 13:20 23.4 42 8.83 9.8 17 22 1014.7 0 19.6 23.7 36.2 95.0 89.9 309.9
24 13:10 23.8 39 8.39 9 20 28 1014.7 0 18.7 22.9 34.5 90.4 84.4 290.6
24 13:00 22.7 42 8.49 9.1 17 26 1014.8 0 18.9 23.4 35.3 92.6 86.7 298.7
24 12:50 22.9 41 8.38 9 26 28 1015 0 18.7 23.2 34.8 91.3 85.2 293.5
24 12:40 23 42 8.63 9.4 26 30 1015.1 0 19.2 23.5 35.7 93.6 88.0 303.4
24 12:30 22.3 45 8.89 9.8 20 35 1015.2 0 19.8 24.1 36.9 96.9 91.9 316.8
24 12:20 22.8 44 8.94 9.9 15 22 1015.3 0 19.9 24.0 36.9 96.8 91.9 317.0
24 12:10 22.1 44 8.59 9.3 20 24 1015.5 0 19.2 23.7 36.0 94.3 88.6 305.2
24 12:00 22.2 47 9.23 10.4 17 26 1015.6 0 20.5 24.6 38.2 100.4 96.1 331.6
24 11:50 21.3 47 8.76 9.5 11 15 1015.8 0 19.6 24.2 36.9 96.9 91.6 315.4
24 11:40 21 47 8.61 9.3 19 24 1015.8 0 19.3 24.0 36.5 95.8 90.1 310.3
24 11:30 20.5 50 8.9 9.7 17 24 1016 0 19.9 24.6 37.8 99.2 94.2 324.6
24 11:20 20.8 49 8.87 9.7 19 22 1016.2 0 19.8 24.5 37.6 98.6 93.5 322.2
24 11:10 20 51 8.81 9.6 22 24 1016.4 0 19.7 24.6 37.7 99.0 93.7 322.9
24 11:00 19.4 53 8.84 9.6 15 24 1016.5 0 19.8 24.8 38.1 100.1 94.8 326.6
24 10:50 19.1 55 9.02 9.9 11 13 1016.5 0 20.2 25.2 39.0 102.3 97.4 335.7
24 10:40 19.2 53 8.74 9.4 20 22 1016.6 0 19.6 24.7 37.9 99.3 93.8 323.1
24 10:30 18.9 55 8.91 9.7 17 30 1016.7 0 20.0 25.1 38.7 101.4 96.3 331.8
24 10:20 18.5 59 9.33 10.3 20 24 1016.8 0 20.9 25.8 40.5 106.2 102.1 352.1
24 10:10 17.7 62 9.35 10.3 13 15 1016.7 0 21.0 26.1 40.9 107.5 103.4 356.5
24 10:00 17.5 62 9.24 10.1 11 19 1016.8 0 20.8 26.0 40.6 106.7 102.3 352.5
24 09:50 17.1 62 9.02 9.8 13 17 1016.9 0 20.3 25.7 40.0 104.9 100.0 344.4
24 09:40 16.6 65 9.18 10 11 13 1017 0 20.7 26.1 40.9 107.3 102.7 353.9
24 09:30 15.9 65 8.8 9.3 11 19 1017 0 19.9 25.7 39.7 104.2 98.7 339.7
24 09:20 15.9 67 9.07 9.8 13 15 1016.9 0 20.5 26.2 40.8 107.0 102.2 351.9
24 09:10 16 68 9.26 10.1 13 17 1017 0 20.9 26.5 41.5 108.9 104.5 360.2
24 09:00 15.1 69 8.9 9.5 9 15 1016.9 0 20.2 26.1 40.5 106.3 101.0 347.7

Last Refresh: 25-Nov-2020 01:38:16

Most of the information presented on this site is sourced from the Bureau of Meteorology.  Copyright in all material sourced from the Bureau of Meteorology resides with the Commonwealth of Australia.